createdAt,value
2022-08-04T00:04:15.065Z,2.28
2022-08-04T00:09:22.621Z,2.20
2022-08-04T00:14:24.800Z,2.53
2022-08-04T00:19:46.716Z,2.40
2022-08-04T00:24:48.483Z,2.50
2022-08-04T00:29:53.028Z,2.33
2022-08-04T00:34:55.365Z,2.00
2022-08-04T00:39:57.183Z,2.63
2022-08-04T00:45:10.642Z,2.17
2022-08-04T00:50:18.808Z,2.50
2022-08-04T00:55:36.754Z,2.30
2022-08-04T01:00:44.384Z,2.00
2022-08-04T01:05:51.861Z,2.03
2022-08-04T01:10:59.970Z,2.13
2022-08-04T01:16:06.181Z,2.00
2022-08-04T01:21:13.310Z,1.90
2022-08-04T01:26:42.705Z,2.00
2022-08-04T01:31:39.202Z,1.85
2022-08-04T01:36:45.151Z,1.95
2022-08-04T01:41:58.320Z,2.35
2022-08-04T01:47:00.901Z,2.47
2022-08-04T01:52:02.793Z,1.98
2022-08-04T01:57:37.521Z,2.08
2022-08-04T02:02:27.119Z,2.15
2022-08-04T02:07:40.661Z,2.15
2022-08-04T02:13:00.962Z,2.30
2022-08-04T02:18:09.732Z,2.55
2022-08-04T02:23:14.793Z,2.17
2022-08-04T02:28:22.941Z,2.45
2022-08-04T02:33:28.445Z,2.10
2022-08-04T02:38:32.567Z,2.30
2022-08-04T02:43:52.105Z,2.60
2022-08-04T02:48:54.598Z,2.20
2022-08-04T02:53:57.292Z,2.70
2022-08-04T02:59:03.048Z,2.40
2022-08-04T03:04:13.490Z,2.20
2022-08-04T03:09:44.218Z,2.17
2022-08-04T03:15:04.442Z,2.08
2022-08-04T03:20:11.892Z,2.30
2022-08-04T03:25:13.292Z,2.53
2022-08-04T03:30:25.866Z,2.20
2022-08-04T03:35:33.437Z,2.72
2022-08-04T03:40:37.951Z,2.80
2022-08-04T03:45:54.245Z,1.98
2022-08-04T03:51:35.282Z,2.38
2022-08-04T03:56:50.500Z,2.30
2022-08-04T04:02:02.285Z,2.22
2022-08-04T04:07:16.921Z,2.15
2022-08-04T04:12:33.871Z,2.03
2022-08-04T04:17:47.516Z,1.92
2022-08-04T04:23:22.775Z,2.40
2022-08-04T04:28:45.898Z,2.20
2022-08-04T04:33:49.004Z,2.55
2022-08-04T04:38:57.564Z,2.60
2022-08-04T04:44:10.059Z,2.40
2022-08-04T04:49:12.015Z,2.50
2022-08-04T04:54:31.538Z,2.83
2022-08-04T05:04:38.161Z,2.47
2022-08-04T05:09:45.745Z,2.90
2022-08-04T05:14:50.075Z,2.60
2022-08-04T05:19:51.459Z,3.00
2022-08-04T05:24:55.520Z,2.90
2022-08-04T05:30:00.151Z,2.78
2022-08-04T05:35:07.379Z,2.63
2022-08-04T05:40:09.422Z,3.25
2022-08-04T05:45:11.017Z,2.88
2022-08-04T05:50:13.571Z,3.03
2022-08-04T05:55:56.709Z,2.53
2022-08-04T06:00:41.467Z,2.65
2022-08-04T06:05:43.733Z,2.90
2022-08-04T06:10:46.519Z,2.30
2022-08-04T06:15:50.011Z,2.58
2022-08-04T06:20:53.276Z,2.70
2022-08-04T06:25:57.030Z,2.60
2022-08-04T06:32:27.963Z,2.80
2022-08-04T06:36:24.656Z,2.60
2022-08-04T06:41:27.126Z,2.60
2022-08-04T06:46:29.685Z,2.22
2022-08-04T06:51:38.886Z,2.50
2022-08-04T06:56:43.493Z,2.35
2022-08-04T07:01:46.206Z,2.70
2022-08-04T07:06:47.948Z,3.28
2022-08-04T07:11:49.428Z,1.98
2022-08-04T07:16:50.956Z,2.92
2022-08-04T07:22:18.073Z,2.72
2022-08-04T07:27:14.003Z,2.40
2022-08-04T07:32:16.682Z,2.42
2022-08-04T07:37:19.940Z,2.17
2022-08-04T07:42:21.720Z,1.90
2022-08-04T07:47:25.430Z,2.25
2022-08-04T07:52:27.814Z,2.08
2022-08-04T07:57:41.210Z,2.17
2022-08-04T08:02:45.646Z,1.88
2022-08-04T08:07:50.877Z,1.85
2022-08-04T08:12:56.772Z,1.90
2022-08-04T08:18:00.755Z,2.10
2022-08-04T08:23:03.344Z,2.00
2022-08-04T08:28:05.446Z,1.80
2022-08-04T08:33:07.930Z,1.60
2022-08-04T08:38:10.978Z,2.00
2022-08-04T08:44:05.341Z,2.08
2022-08-04T08:49:11.531Z,1.83
2022-08-04T08:54:51.911Z,1.88
2022-08-04T09:00:08.619Z,1.80
2022-08-04T09:05:28.959Z,1.80
2022-08-04T09:10:37.214Z,1.75
2022-08-04T09:15:54.361Z,1.80
2022-08-04T09:20:59.704Z,1.60
2022-08-04T09:26:01.266Z,2.00
2022-08-04T09:31:06.504Z,1.60
2022-08-04T09:36:15.727Z,1.70
2022-08-04T09:41:52.624Z,1.48
2022-08-04T09:47:00.407Z,1.60
2022-08-04T09:52:10.978Z,1.77
2022-08-04T09:57:12.505Z,1.83
2022-08-04T10:02:15.736Z,1.50
2022-08-04T10:07:36.203Z,1.73
2022-08-04T10:12:59.929Z,1.70
2022-08-04T10:18:10.873Z,1.73
2022-08-04T10:23:14.844Z,1.52
2022-08-04T10:28:19.937Z,1.60
2022-08-04T10:33:24.259Z,1.75
2022-08-04T10:38:31.781Z,1.85
2022-08-04T10:43:54.234Z,1.70
2022-08-04T10:49:02.476Z,1.52
2022-08-04T10:54:07.129Z,1.67
2022-08-04T10:59:15.101Z,1.50
2022-08-04T11:04:30.551Z,1.52
2022-08-04T11:09:33.765Z,1.80
2022-08-04T11:14:45.318Z,1.80
2022-08-04T11:19:54.539Z,1.77
2022-08-04T11:25:07.550Z,1.42
2022-08-04T11:30:09.915Z,1.45
2022-08-04T11:35:33.864Z,1.55
2022-08-04T11:41:02.238Z,1.60
2022-08-04T11:46:08.622Z,1.67
2022-08-04T11:51:10.151Z,1.75
2022-08-04T11:56:13.565Z,1.65
2022-08-04T12:01:38.341Z,1.40
2022-08-04T12:06:56.819Z,1.60
2022-08-04T12:12:21.463Z,1.65
2022-08-04T12:17:27.504Z,1.65
2022-08-04T12:22:41.672Z,1.77
2022-08-04T12:27:48.307Z,1.42
2022-08-04T12:33:01.432Z,1.63
2022-08-04T12:38:05.021Z,1.48
2022-08-04T12:43:10.397Z,1.52
2022-08-04T12:48:17.898Z,1.50
2022-08-04T12:53:31.971Z,1.48
2022-08-04T12:58:42.277Z,2.08
2022-08-04T13:03:52.526Z,1.30
2022-08-04T13:08:55.204Z,1.60
2022-08-04T13:14:24.410Z,1.40
2022-08-04T13:19:19.146Z,1.50
2022-08-04T13:24:32.188Z,1.55
2022-08-04T13:30:25.017Z,1.40
2022-08-04T13:35:00.226Z,1.30
2022-08-04T13:40:03.359Z,1.38
2022-08-04T13:45:06.416Z,1.50
2022-08-04T13:50:27.661Z,1.50
2022-08-04T13:55:29.103Z,1.85
2022-08-04T14:00:49.391Z,1.60
2022-08-04T14:06:09.862Z,1.60
2022-08-04T14:12:06.841Z,1.67
2022-08-04T14:16:32.827Z,1.73
2022-08-04T14:21:37.258Z,1.70
2022-08-04T14:26:38.751Z,1.58
2022-08-04T14:31:55.815Z,1.80
2022-08-04T14:37:16.447Z,1.50
2022-08-04T14:42:39.554Z,1.48
2022-08-04T14:47:52.678Z,1.67
2022-08-04T14:53:02.220Z,1.65
2022-08-04T14:58:35.957Z,1.70
2022-08-04T15:03:25.803Z,1.63
2022-08-04T15:08:30.852Z,1.88
2022-08-04T15:13:33.544Z,1.60
2022-08-04T15:18:39.046Z,1.95
2022-08-04T15:23:41.155Z,1.52
2022-08-04T15:28:46.951Z,1.60
2022-08-04T15:33:48.990Z,1.73
2022-08-04T15:39:01.798Z,1.83
2022-08-04T15:44:26.548Z,1.65
2022-08-04T15:49:28.032Z,1.50
2022-08-04T15:54:32.937Z,1.50
2022-08-04T15:59:53.737Z,1.50
2022-08-04T16:05:18.534Z,1.70
2022-08-04T16:10:35.507Z,2.03
2022-08-04T16:15:38.369Z,1.60
2022-08-04T16:20:41.695Z,1.70
2022-08-04T16:25:46.469Z,1.67
2022-08-04T16:30:48.311Z,1.80
2022-08-04T16:35:49.739Z,1.70
2022-08-04T16:40:58.440Z,1.77
2022-08-04T16:46:01.533Z,1.60
2022-08-04T16:51:06.989Z,1.60
2022-08-04T16:56:09.848Z,1.52
2022-08-04T17:01:32.102Z,1.70
2022-08-04T17:06:36.455Z,1.70
2022-08-04T17:11:37.959Z,1.50
2022-08-04T17:16:40.790Z,1.40
2022-08-04T17:21:42.260Z,1.60
2022-08-04T17:26:53.555Z,1.50
2022-08-04T17:31:56.594Z,1.77
2022-08-04T17:37:31.196Z,1.40
2022-08-04T17:42:30.069Z,1.60
2022-08-04T17:47:38.264Z,1.87
2022-08-04T17:52:45.107Z,1.42
2022-08-04T17:57:52.430Z,1.55
2022-08-04T18:02:54.837Z,1.40
2022-08-04T18:08:39.192Z,1.73
2022-08-04T18:13:17.917Z,1.60
2022-08-04T18:18:23.650Z,2.08
2022-08-04T18:23:31.671Z,1.60
2022-08-04T18:28:34.506Z,1.70
2022-08-04T18:33:37.841Z,1.83
2022-08-04T18:38:55.391Z,1.77
2022-08-04T18:43:59.976Z,1.90
2022-08-04T18:49:01.540Z,1.90
2022-08-04T18:54:03.267Z,1.90
2022-08-04T18:59:11.340Z,2.05
2022-08-04T19:04:33.504Z,1.83
2022-08-04T19:09:51.163Z,2.00
2022-08-04T19:19:59.400Z,1.92
2022-08-04T19:25:01.967Z,1.98
2022-08-04T19:30:03.930Z,2.08
2022-08-04T19:35:06.479Z,1.90
2022-08-04T19:40:13.133Z,3.00
2022-08-04T19:45:16.719Z,1.73
2022-08-04T19:50:18.437Z,2.10
2022-08-04T19:55:37.101Z,2.20
2022-08-04T20:05:55.160Z,2.20
2022-08-04T20:10:57.774Z,2.00
2022-08-04T20:15:59.548Z,2.00
2022-08-04T20:21:01.065Z,2.30
2022-08-04T20:26:02.642Z,2.10
2022-08-04T20:31:04.500Z,2.00
2022-08-04T20:36:06.625Z,1.92
2022-08-04T20:41:08.415Z,2.08
2022-08-04T20:46:17.884Z,1.90
2022-08-04T20:51:25.895Z,2.00
2022-08-04T20:56:33.241Z,1.90
2022-08-04T21:01:34.744Z,1.83
2022-08-04T21:06:36.635Z,1.83
2022-08-04T21:11:38.077Z,2.00
2022-08-04T21:16:55.781Z,1.90
2022-08-04T21:21:57.944Z,1.90
2022-08-04T21:27:01.914Z,1.67
2022-08-04T21:32:05.839Z,1.70
2022-08-04T21:37:10.478Z,1.80
2022-08-04T21:42:28.120Z,1.65
2022-08-04T21:47:46.538Z,1.95
2022-08-04T21:52:50.910Z,1.77
2022-08-04T21:57:54.143Z,2.00
2022-08-04T22:02:55.572Z,1.75
2022-08-04T22:07:57.149Z,1.80
2022-08-04T22:12:58.746Z,1.83
2022-08-04T22:18:00.372Z,2.08
2022-08-04T22:23:16.630Z,1.67
2022-08-04T22:28:20.557Z,1.83
2022-08-04T22:33:22.718Z,1.80
2022-08-04T22:38:41.920Z,2.10
2022-08-04T22:43:45.914Z,2.10
2022-08-04T22:48:57.080Z,1.95
2022-08-04T22:54:00.261Z,1.83
2022-08-04T22:59:03.123Z,2.03
2022-08-04T23:04:04.710Z,1.60
2022-08-04T23:09:06.083Z,1.65
2022-08-04T23:14:13.247Z,1.67
2022-08-04T23:19:15.562Z,1.58
2022-08-04T23:24:17.135Z,1.38
2022-08-04T23:29:20.416Z,1.70
2022-08-04T23:34:23.008Z,1.63
2022-08-04T23:39:24.438Z,1.65
2022-08-04T23:44:27.115Z,1.77
2022-08-04T23:49:44.044Z,1.40
2022-08-04T23:54:46.026Z,1.80
2022-08-04T23:59:54.273Z,1.60
